sensor_id;sensor_type;location;lat;lon;timestamp;P1;durP1;ratioP1;P2;durP2;ratioP2
7289;SDS011;63176;52.678;13.250;2023-07-16T00:02:02;5.40;;;2.50;;
7289;SDS011;63176;52.678;13.250;2023-07-16T00:04:28;4.07;;;2.07;;
7289;SDS011;63176;52.678;13.250;2023-07-16T00:06:55;3.20;;;2.53;;
7289;SDS011;63176;52.678;13.250;2023-07-16T00:09:20;7.13;;;2.10;;
7289;SDS011;63176;52.678;13.250;2023-07-16T00:11:46;1.70;;;1.60;;
7289;SDS011;63176;52.678;13.250;2023-07-16T00:14:11;3.30;;;2.40;;
7289;SDS011;63176;52.678;13.250;2023-07-16T00:16:37;2.47;;;2.27;;
7289;SDS011;63176;52.678;13.250;2023-07-16T00:19:03;2.60;;;2.40;;
7289;SDS011;63176;52.678;13.250;2023-07-16T00:21:29;2.43;;;2.23;;
7289;SDS011;63176;52.678;13.250;2023-07-16T00:23:54;2.73;;;2.37;;
7289;SDS011;63176;52.678;13.250;2023-07-16T00:26:21;3.30;;;2.70;;
7289;SDS011;63176;52.678;13.250;2023-07-16T00:28:47;3.00;;;2.70;;
7289;SDS011;63176;52.678;13.250;2023-07-16T00:31:12;5.37;;;2.83;;
7289;SDS011;63176;52.678;13.250;2023-07-16T00:33:38;2.67;;;2.47;;
7289;SDS011;63176;52.678;13.250;2023-07-16T00:36:04;3.70;;;2.60;;
7289;SDS011;63176;52.678;13.250;2023-07-16T00:38:29;4.83;;;2.60;;
7289;SDS011;63176;52.678;13.250;2023-07-16T00:40:56;2.30;;;2.10;;
7289;SDS011;63176;52.678;13.250;2023-07-16T00:43:22;3.00;;;2.40;;
7289;SDS011;63176;52.678;13.250;2023-07-16T00:45:47;3.53;;;2.50;;
7289;SDS011;63176;52.678;13.250;2023-07-16T00:48:14;2.93;;;2.50;;
7289;SDS011;63176;52.678;13.250;2023-07-16T00:50:40;2.77;;;2.57;;
7289;SDS011;63176;52.678;13.250;2023-07-16T00:53:06;3.37;;;2.77;;
7289;SDS011;63176;52.678;13.250;2023-07-16T00:55:35;3.43;;;3.03;;
7289;SDS011;63176;52.678;13.250;2023-07-16T00:58:02;3.13;;;2.93;;
7289;SDS011;63176;52.678;13.250;2023-07-16T01:00:33;3.03;;;2.63;;
7289;SDS011;63176;52.678;13.250;2023-07-16T01:03:03;4.00;;;2.70;;
7289;SDS011;63176;52.678;13.250;2023-07-16T01:05:33;3.57;;;3.00;;
7289;SDS011;63176;52.678;13.250;2023-07-16T01:08:05;6.03;;;3.57;;
7289;SDS011;63176;52.678;13.250;2023-07-16T01:10:33;4.43;;;3.17;;
7289;SDS011;63176;52.678;13.250;2023-07-16T01:12:59;4.00;;;2.50;;
7289;SDS011;63176;52.678;13.250;2023-07-16T01:15:25;2.60;;;2.40;;
7289;SDS011;63176;52.678;13.250;2023-07-16T01:17:51;3.67;;;2.27;;
7289;SDS011;63176;52.678;13.250;2023-07-16T01:20:16;3.80;;;2.20;;
7289;SDS011;63176;52.678;13.250;2023-07-16T01:27:59;2.30;;;2.10;;
7289;SDS011;63176;52.678;13.250;2023-07-16T01:30:28;2.97;;;2.60;;
7289;SDS011;63176;52.678;13.250;2023-07-16T01:32:55;3.27;;;2.97;;
7289;SDS011;63176;52.678;13.250;2023-07-16T01:35:22;3.53;;;3.23;;
7289;SDS011;63176;52.678;13.250;2023-07-16T01:37:48;8.80;;;3.23;;
7289;SDS011;63176;52.678;13.250;2023-07-16T01:40:14;7.57;;;3.80;;
7289;SDS011;63176;52.678;13.250;2023-07-16T01:42:40;6.03;;;4.37;;
7289;SDS011;63176;52.678;13.250;2023-07-16T01:45:06;6.00;;;3.43;;
7289;SDS011;63176;52.678;13.250;2023-07-16T01:47:59;7.50;;;4.37;;
7289;SDS011;63176;52.678;13.250;2023-07-16T01:50:44;5.00;;;4.10;;
7289;SDS011;63176;52.678;13.250;2023-07-16T01:53:09;3.80;;;2.70;;
7289;SDS011;63176;52.678;13.250;2023-07-16T01:55:35;5.17;;;3.63;;
7289;SDS011;63176;52.678;13.250;2023-07-16T01:58:00;5.20;;;3.83;;
7289;SDS011;63176;52.678;13.250;2023-07-16T02:00:26;6.20;;;3.13;;
7289;SDS011;63176;52.678;13.250;2023-07-16T02:02:52;4.40;;;3.73;;
7289;SDS011;63176;52.678;13.250;2023-07-16T02:05:17;5.20;;;4.20;;
7289;SDS011;63176;52.678;13.250;2023-07-16T02:07:43;4.63;;;3.20;;
7289;SDS011;63176;52.678;13.250;2023-07-16T02:10:09;6.60;;;4.50;;
7289;SDS011;63176;52.678;13.250;2023-07-16T02:12:34;5.13;;;4.10;;
7289;SDS011;63176;52.678;13.250;2023-07-16T02:15:00;4.40;;;4.00;;
7289;SDS011;63176;52.678;13.250;2023-07-16T02:17:25;6.33;;;4.20;;
7289;SDS011;63176;52.678;13.250;2023-07-16T02:19:51;5.63;;;3.73;;
7289;SDS011;63176;52.678;13.250;2023-07-16T02:22:16;3.90;;;3.50;;
7289;SDS011;63176;52.678;13.250;2023-07-16T02:24:42;4.40;;;3.73;;
7289;SDS011;63176;52.678;13.250;2023-07-16T02:27:08;4.50;;;3.50;;
7289;SDS011;63176;52.678;13.250;2023-07-16T02:29:33;5.33;;;3.17;;
7289;SDS011;63176;52.678;13.250;2023-07-16T02:31:59;3.70;;;3.40;;
7289;SDS011;63176;52.678;13.250;2023-07-16T02:34:24;6.53;;;3.37;;
7289;SDS011;63176;52.678;13.250;2023-07-16T02:36:50;6.60;;;3.50;;
7289;SDS011;63176;52.678;13.250;2023-07-16T02:39:16;4.63;;;3.33;;
7289;SDS011;63176;52.678;13.250;2023-07-16T02:41:41;4.53;;;3.43;;
7289;SDS011;63176;52.678;13.250;2023-07-16T02:44:08;5.63;;;5.07;;
7289;SDS011;63176;52.678;13.250;2023-07-16T02:46:34;5.53;;;2.97;;
7289;SDS011;63176;52.678;13.250;2023-07-16T02:48:59;3.50;;;3.20;;
7289;SDS011;63176;52.678;13.250;2023-07-16T02:51:25;3.20;;;2.90;;
7289;SDS011;63176;52.678;13.250;2023-07-16T02:53:51;3.40;;;3.10;;
7289;SDS011;63176;52.678;13.250;2023-07-16T02:56:17;6.33;;;3.37;;
7289;SDS011;63176;52.678;13.250;2023-07-16T02:58:42;4.97;;;3.07;;
7289;SDS011;63176;52.678;13.250;2023-07-16T03:01:08;4.43;;;3.27;;
7289;SDS011;63176;52.678;13.250;2023-07-16T03:03:33;4.10;;;3.43;;
7289;SDS011;63176;52.678;13.250;2023-07-16T03:06:00;7.50;;;2.93;;
7289;SDS011;63176;52.678;13.250;2023-07-16T03:08:25;4.80;;;4.10;;
7289;SDS011;63176;52.678;13.250;2023-07-16T03:10:55;4.70;;;3.10;;
7289;SDS011;63176;52.678;13.250;2023-07-16T03:13:21;3.43;;;2.97;;
7289;SDS011;63176;52.678;13.250;2023-07-16T03:15:47;3.80;;;3.50;;
7289;SDS011;63176;52.678;13.250;2023-07-16T03:18:12;7.67;;;3.40;;
7289;SDS011;63176;52.678;13.250;2023-07-16T03:20:38;4.43;;;3.53;;
7289;SDS011;63176;52.678;13.250;2023-07-16T03:23:04;3.33;;;3.03;;
7289;SDS011;63176;52.678;13.250;2023-07-16T03:25:29;8.17;;;3.33;;
7289;SDS011;63176;52.678;13.250;2023-07-16T03:27:55;3.57;;;3.20;;
7289;SDS011;63176;52.678;13.250;2023-07-16T03:30:20;5.83;;;3.30;;
7289;SDS011;63176;52.678;13.250;2023-07-16T03:32:46;3.60;;;3.07;;
7289;SDS011;63176;52.678;13.250;2023-07-16T03:35:11;5.93;;;3.60;;
7289;SDS011;63176;52.678;13.250;2023-07-16T03:37:37;3.47;;;3.17;;
7289;SDS011;63176;52.678;13.250;2023-07-16T03:40:13;5.17;;;3.23;;
7289;SDS011;63176;52.678;13.250;2023-07-16T03:42:40;3.90;;;3.00;;
7289;SDS011;63176;52.678;13.250;2023-07-16T03:45:06;3.80;;;3.40;;
7289;SDS011;63176;52.678;13.250;2023-07-16T03:47:32;5.50;;;3.30;;
7289;SDS011;63176;52.678;13.250;2023-07-16T03:49:58;3.20;;;2.90;;
7289;SDS011;63176;52.678;13.250;2023-07-16T03:52:23;5.87;;;3.30;;
7289;SDS011;63176;52.678;13.250;2023-07-16T03:54:50;4.80;;;3.30;;
7289;SDS011;63176;52.678;13.250;2023-07-16T03:57:16;3.90;;;3.17;;
7289;SDS011;63176;52.678;13.250;2023-07-16T03:59:42;3.70;;;3.00;;
7289;SDS011;63176;52.678;13.250;2023-07-16T04:02:08;3.00;;;2.63;;
7289;SDS011;63176;52.678;13.250;2023-07-16T04:04:33;2.70;;;2.50;;
7289;SDS011;63176;52.678;13.250;2023-07-16T04:06:59;5.30;;;3.43;;
7289;SDS011;63176;52.678;13.250;2023-07-16T04:09:25;4.00;;;3.47;;
7289;SDS011;63176;52.678;13.250;2023-07-16T04:11:51;3.23;;;2.93;;
7289;SDS011;63176;52.678;13.250;2023-07-16T04:14:17;4.47;;;3.40;;
7289;SDS011;63176;52.678;13.250;2023-07-16T04:16:42;3.00;;;2.80;;
7289;SDS011;63176;52.678;13.250;2023-07-16T04:19:09;3.37;;;3.03;;
7289;SDS011;63176;52.678;13.250;2023-07-16T04:21:35;3.20;;;2.90;;
7289;SDS011;63176;52.678;13.250;2023-07-16T04:24:05;3.83;;;2.93;;
7289;SDS011;63176;52.678;13.250;2023-07-16T04:26:31;5.70;;;3.43;;
7289;SDS011;63176;52.678;13.250;2023-07-16T04:28:57;2.50;;;2.30;;
7289;SDS011;63176;52.678;13.250;2023-07-16T04:34:23;3.83;;;3.50;;
7289;SDS011;63176;52.678;13.250;2023-07-16T04:37:10;3.57;;;3.27;;
7289;SDS011;63176;52.678;13.250;2023-07-16T04:40:35;3.00;;;2.70;;
7289;SDS011;63176;52.678;13.250;2023-07-16T04:49:37;3.67;;;2.93;;
7289;SDS011;63176;52.678;13.250;2023-07-16T04:52:15;5.03;;;3.20;;
7289;SDS011;63176;52.678;13.250;2023-07-16T04:54:44;4.40;;;2.83;;
7289;SDS011;63176;52.678;13.250;2023-07-16T04:57:12;3.00;;;2.70;;
7289;SDS011;63176;52.678;13.250;2023-07-16T04:59:40;3.20;;;2.73;;
7289;SDS011;63176;52.678;13.250;2023-07-16T05:02:06;3.40;;;2.63;;
7289;SDS011;63176;52.678;13.250;2023-07-16T05:04:32;4.03;;;2.90;;
7289;SDS011;63176;52.678;13.250;2023-07-16T05:07:06;3.73;;;2.97;;
7289;SDS011;63176;52.678;13.250;2023-07-16T05:09:37;4.80;;;3.10;;
7289;SDS011;63176;52.678;13.250;2023-07-16T05:12:02;3.63;;;2.80;;
7289;SDS011;63176;52.678;13.250;2023-07-16T05:14:28;4.03;;;3.27;;
7289;SDS011;63176;52.678;13.250;2023-07-16T05:16:55;7.80;;;2.80;;
7289;SDS011;63176;52.678;13.250;2023-07-16T05:19:20;4.37;;;2.50;;
7289;SDS011;63176;52.678;13.250;2023-07-16T05:21:47;2.73;;;2.53;;
7289;SDS011;63176;52.678;13.250;2023-07-16T05:24:47;2.30;;;2.20;;
7289;SDS011;63176;52.678;13.250;2023-07-16T05:27:13;2.50;;;2.30;;
7289;SDS011;63176;52.678;13.250;2023-07-16T05:30:04;3.03;;;2.57;;
7289;SDS011;63176;52.678;13.250;2023-07-16T05:32:30;3.60;;;2.87;;
7289;SDS011;63176;52.678;13.250;2023-07-16T05:34:56;3.20;;;2.90;;
7289;SDS011;63176;52.678;13.250;2023-07-16T05:37:22;2.77;;;2.43;;
7289;SDS011;63176;52.678;13.250;2023-07-16T05:39:47;3.80;;;2.70;;
7289;SDS011;63176;52.678;13.250;2023-07-16T05:42:13;2.90;;;2.47;;
7289;SDS011;63176;52.678;13.250;2023-07-16T05:44:42;2.23;;;2.13;;
7289;SDS011;63176;52.678;13.250;2023-07-16T05:47:09;2.70;;;2.50;;
7289;SDS011;63176;52.678;13.250;2023-07-16T05:49:37;4.87;;;2.50;;
7289;SDS011;63176;52.678;13.250;2023-07-16T05:52:02;4.30;;;3.33;;
7289;SDS011;63176;52.678;13.250;2023-07-16T05:54:28;3.07;;;2.80;;
7289;SDS011;63176;52.678;13.250;2023-07-16T05:57:19;6.80;;;2.90;;
7289;SDS011;63176;52.678;13.250;2023-07-16T05:59:44;4.03;;;2.93;;
7289;SDS011;63176;52.678;13.250;2023-07-16T06:02:10;5.40;;;3.83;;
7289;SDS011;63176;52.678;13.250;2023-07-16T06:04:36;5.73;;;3.13;;
7289;SDS011;63176;52.678;13.250;2023-07-16T06:07:02;4.27;;;3.47;;
7289;SDS011;63176;52.678;13.250;2023-07-16T06:09:28;3.93;;;3.10;;
7289;SDS011;63176;52.678;13.250;2023-07-16T06:11:54;6.00;;;3.20;;
7289;SDS011;63176;52.678;13.250;2023-07-16T06:14:20;6.00;;;3.03;;
7289;SDS011;63176;52.678;13.250;2023-07-16T06:16:45;3.83;;;2.87;;
7289;SDS011;63176;52.678;13.250;2023-07-16T06:19:11;2.87;;;2.67;;
7289;SDS011;63176;52.678;13.250;2023-07-16T06:21:37;3.03;;;2.37;;
7289;SDS011;63176;52.678;13.250;2023-07-16T06:24:02;3.20;;;2.90;;
7289;SDS011;63176;52.678;13.250;2023-07-16T06:26:28;2.67;;;2.47;;
7289;SDS011;63176;52.678;13.250;2023-07-16T06:28:54;2.73;;;2.43;;
7289;SDS011;63176;52.678;13.250;2023-07-16T06:31:19;2.37;;;2.20;;
7289;SDS011;63176;52.678;13.250;2023-07-16T06:33:45;2.83;;;2.30;;
7289;SDS011;63176;52.678;13.250;2023-07-16T06:36:12;3.10;;;2.63;;
7289;SDS011;63176;52.678;13.250;2023-07-16T06:38:38;3.60;;;2.50;;
7289;SDS011;63176;52.678;13.250;2023-07-16T06:41:04;3.80;;;2.30;;
7289;SDS011;63176;52.678;13.250;2023-07-16T06:43:29;3.10;;;2.80;;
7289;SDS011;63176;52.678;13.250;2023-07-16T06:45:55;3.37;;;2.67;;
7289;SDS011;63176;52.678;13.250;2023-07-16T06:48:21;4.60;;;3.30;;
7289;SDS011;63176;52.678;13.250;2023-07-16T06:50:47;4.30;;;2.50;;
7289;SDS011;63176;52.678;13.250;2023-07-16T06:53:13;3.30;;;2.77;;
7289;SDS011;63176;52.678;13.250;2023-07-16T06:55:39;3.93;;;2.50;;
7289;SDS011;63176;52.678;13.250;2023-07-16T06:58:04;2.60;;;2.40;;
7289;SDS011;63176;52.678;13.250;2023-07-16T07:00:30;3.50;;;3.20;;
7289;SDS011;63176;52.678;13.250;2023-07-16T07:02:56;3.53;;;2.20;;
7289;SDS011;63176;52.678;13.250;2023-07-16T07:05:22;3.30;;;2.73;;
7289;SDS011;63176;52.678;13.250;2023-07-16T07:07:47;3.10;;;2.90;;
7289;SDS011;63176;52.678;13.250;2023-07-16T07:10:13;3.80;;;2.60;;
7289;SDS011;63176;52.678;13.250;2023-07-16T07:12:39;2.80;;;2.60;;
7289;SDS011;63176;52.678;13.250;2023-07-16T07:15:05;3.07;;;2.77;;
7289;SDS011;63176;52.678;13.250;2023-07-16T07:17:32;4.10;;;2.83;;
7289;SDS011;63176;52.678;13.250;2023-07-16T07:19:57;2.63;;;2.43;;
7289;SDS011;63176;52.678;13.250;2023-07-16T07:22:23;2.70;;;2.50;;
7289;SDS011;63176;52.678;13.250;2023-07-16T07:24:49;2.50;;;2.30;;
7289;SDS011;63176;52.678;13.250;2023-07-16T07:27:15;3.20;;;2.30;;
7289;SDS011;63176;52.678;13.250;2023-07-16T07:29:41;2.87;;;2.57;;
7289;SDS011;63176;52.678;13.250;2023-07-16T07:32:07;2.70;;;2.00;;
7289;SDS011;63176;52.678;13.250;2023-07-16T07:34:32;5.83;;;2.47;;
7289;SDS011;63176;52.678;13.250;2023-07-16T07:36:58;4.03;;;2.63;;
7289;SDS011;63176;52.678;13.250;2023-07-16T07:39:24;3.63;;;2.07;;
7289;SDS011;63176;52.678;13.250;2023-07-16T07:41:49;2.63;;;2.43;;
7289;SDS011;63176;52.678;13.250;2023-07-16T07:44:15;3.73;;;2.43;;
7289;SDS011;63176;52.678;13.250;2023-07-16T07:46:41;1.90;;;1.80;;
7289;SDS011;63176;52.678;13.250;2023-07-16T07:49:06;2.40;;;2.20;;
7289;SDS011;63176;52.678;13.250;2023-07-16T07:51:32;2.80;;;2.33;;
7289;SDS011;63176;52.678;13.250;2023-07-16T07:53:58;2.70;;;2.00;;
7289;SDS011;63176;52.678;13.250;2023-07-16T07:56:24;2.30;;;2.10;;
7289;SDS011;63176;52.678;13.250;2023-07-16T07:58:50;2.30;;;1.83;;
7289;SDS011;63176;52.678;13.250;2023-07-16T08:01:16;2.10;;;2.00;;
7289;SDS011;63176;52.678;13.250;2023-07-16T08:03:41;4.93;;;2.10;;
7289;SDS011;63176;52.678;13.250;2023-07-16T08:06:07;2.50;;;2.30;;
7289;SDS011;63176;52.678;13.250;2023-07-16T08:08:33;4.93;;;2.37;;
7289;SDS011;63176;52.678;13.250;2023-07-16T08:10:58;4.63;;;1.73;;
7289;SDS011;63176;52.678;13.250;2023-07-16T08:13:24;1.93;;;1.63;;
7289;SDS011;63176;52.678;13.250;2023-07-16T08:15:50;1.27;;;1.17;;
7289;SDS011;63176;52.678;13.250;2023-07-16T08:18:15;1.97;;;1.40;;
7289;SDS011;63176;52.678;13.250;2023-07-16T08:20:41;1.60;;;1.50;;
7289;SDS011;63176;52.678;13.250;2023-07-16T08:23:07;4.33;;;2.00;;
7289;SDS011;63176;52.678;13.250;2023-07-16T08:25:33;2.53;;;2.00;;
7289;SDS011;63176;52.678;13.250;2023-07-16T08:28:01;1.80;;;1.70;;
7289;SDS011;63176;52.678;13.250;2023-07-16T08:30:27;1.70;;;1.60;;
7289;SDS011;63176;52.678;13.250;2023-07-16T08:32:53;3.90;;;2.13;;
7289;SDS011;63176;52.678;13.250;2023-07-16T08:35:19;2.10;;;1.90;;
7289;SDS011;63176;52.678;13.250;2023-07-16T08:37:45;1.87;;;1.60;;
7289;SDS011;63176;52.678;13.250;2023-07-16T08:40:14;4.30;;;2.17;;
7289;SDS011;63176;52.678;13.250;2023-07-16T08:42:40;5.23;;;1.83;;
7289;SDS011;63176;52.678;13.250;2023-07-16T08:45:09;2.73;;;1.80;;
7289;SDS011;63176;52.678;13.250;2023-07-16T08:47:36;2.50;;;2.03;;
7289;SDS011;63176;52.678;13.250;2023-07-16T08:50:02;1.83;;;1.73;;
7289;SDS011;63176;52.678;13.250;2023-07-16T08:52:28;4.47;;;1.87;;
7289;SDS011;63176;52.678;13.250;2023-07-16T08:54:55;3.47;;;1.97;;
7289;SDS011;63176;52.678;13.250;2023-07-16T08:57:21;2.40;;;2.20;;
7289;SDS011;63176;52.678;13.250;2023-07-16T08:59:50;3.30;;;1.90;;
7289;SDS011;63176;52.678;13.250;2023-07-16T09:02:19;3.90;;;1.50;;
7289;SDS011;63176;52.678;13.250;2023-07-16T09:04:46;1.60;;;1.50;;
7289;SDS011;63176;52.678;13.250;2023-07-16T09:07:13;3.60;;;2.13;;
7289;SDS011;63176;52.678;13.250;2023-07-16T09:09:39;1.60;;;1.50;;
7289;SDS011;63176;52.678;13.250;2023-07-16T09:12:05;3.30;;;1.60;;
7289;SDS011;63176;52.678;13.250;2023-07-16T09:14:31;1.87;;;1.63;;
7289;SDS011;63176;52.678;13.250;2023-07-16T09:16:57;3.30;;;2.33;;
7289;SDS011;63176;52.678;13.250;2023-07-16T09:19:24;1.90;;;1.77;;
7289;SDS011;63176;52.678;13.250;2023-07-16T09:21:51;3.37;;;1.60;;
7289;SDS011;63176;52.678;13.250;2023-07-16T09:24:18;5.90;;;1.80;;
7289;SDS011;63176;52.678;13.250;2023-07-16T09:26:54;2.77;;;1.70;;
7289;SDS011;63176;52.678;13.250;2023-07-16T09:29:24;1.73;;;1.63;;
7289;SDS011;63176;52.678;13.250;2023-07-16T09:32:01;1.10;;;1.00;;
7289;SDS011;63176;52.678;13.250;2023-07-16T09:34:28;6.83;;;1.40;;
7289;SDS011;63176;52.678;13.250;2023-07-16T09:36:54;2.57;;;1.47;;
7289;SDS011;63176;52.678;13.250;2023-07-16T09:39:24;3.23;;;1.40;;
7289;SDS011;63176;52.678;13.250;2023-07-16T09:41:51;2.50;;;1.30;;
7289;SDS011;63176;52.678;13.250;2023-07-16T09:44:17;1.30;;;1.20;;
7289;SDS011;63176;52.678;13.250;2023-07-16T09:46:43;2.20;;;1.27;;
7289;SDS011;63176;52.678;13.250;2023-07-16T09:49:10;1.60;;;1.10;;
7289;SDS011;63176;52.678;13.250;2023-07-16T09:51:36;2.07;;;1.07;;
7289;SDS011;63176;52.678;13.250;2023-07-16T09:54:03;3.23;;;0.90;;
7289;SDS011;63176;52.678;13.250;2023-07-16T09:56:40;4.73;;;1.47;;
7289;SDS011;63176;52.678;13.250;2023-07-16T09:59:17;3.53;;;0.90;;
7289;SDS011;63176;52.678;13.250;2023-07-16T10:01:45;3.27;;;1.37;;
7289;SDS011;63176;52.678;13.250;2023-07-16T10:06:59;2.13;;;1.10;;
7289;SDS011;63176;52.678;13.250;2023-07-16T10:14:43;1.83;;;1.10;;
7289;SDS011;63176;52.678;13.250;2023-07-16T10:17:20;2.60;;;1.43;;
7289;SDS011;63176;52.678;13.250;2023-07-16T10:22:17;3.87;;;1.60;;
7289;SDS011;63176;52.678;13.250;2023-07-16T10:24:50;1.20;;;1.10;;
7289;SDS011;63176;52.678;13.250;2023-07-16T10:27:25;1.63;;;1.30;;
7289;SDS011;63176;52.678;13.250;2023-07-16T10:29:55;2.30;;;1.30;;
7289;SDS011;63176;52.678;13.250;2023-07-16T10:32:21;2.10;;;1.37;;
7289;SDS011;63176;52.678;13.250;2023-07-16T10:34:51;2.80;;;1.20;;
7289;SDS011;63176;52.678;13.250;2023-07-16T10:37:16;1.50;;;1.40;;
7289;SDS011;63176;52.678;13.250;2023-07-16T10:39:51;1.10;;;1.00;;
7289;SDS011;63176;52.678;13.250;2023-07-16T10:42:22;2.40;;;1.47;;
7289;SDS011;63176;52.678;13.250;2023-07-16T10:44:49;4.00;;;1.40;;
7289;SDS011;63176;52.678;13.250;2023-07-16T10:47:22;5.57;;;1.30;;
7289;SDS011;63176;52.678;13.250;2023-07-16T10:49:49;3.00;;;1.33;;
7289;SDS011;63176;52.678;13.250;2023-07-16T10:52:17;4.20;;;1.20;;
7289;SDS011;63176;52.678;13.250;2023-07-16T10:54:43;1.47;;;1.10;;
7289;SDS011;63176;52.678;13.250;2023-07-16T10:57:10;4.60;;;1.17;;
7289;SDS011;63176;52.678;13.250;2023-07-16T10:59:39;1.33;;;1.17;;
7289;SDS011;63176;52.678;13.250;2023-07-16T11:02:10;2.70;;;1.47;;
7289;SDS011;63176;52.678;13.250;2023-07-16T11:04:37;4.10;;;1.33;;
7289;SDS011;63176;52.678;13.250;2023-07-16T11:07:10;3.57;;;1.23;;
7289;SDS011;63176;52.678;13.250;2023-07-16T11:09:54;2.10;;;1.33;;
7289;SDS011;63176;52.678;13.250;2023-07-16T11:12:21;3.53;;;1.23;;
7289;SDS011;63176;52.678;13.250;2023-07-16T11:14:48;5.57;;;1.60;;
7289;SDS011;63176;52.678;13.250;2023-07-16T11:17:15;2.50;;;1.30;;
7289;SDS011;63176;52.678;13.250;2023-07-16T11:19:44;1.50;;;1.40;;
7289;SDS011;63176;52.678;13.250;2023-07-16T11:22:11;1.53;;;1.10;;
7289;SDS011;63176;52.678;13.250;2023-07-16T11:24:41;3.10;;;1.40;;
7289;SDS011;63176;52.678;13.250;2023-07-16T11:27:15;1.27;;;1.17;;
7289;SDS011;63176;52.678;13.250;2023-07-16T11:29:49;2.30;;;1.33;;
7289;SDS011;63176;52.678;13.250;2023-07-16T11:35:07;2.27;;;1.43;;
7289;SDS011;63176;52.678;13.250;2023-07-16T11:37:35;1.60;;;1.50;;
7289;SDS011;63176;52.678;13.250;2023-07-16T11:40:05;1.67;;;1.57;;
7289;SDS011;63176;52.678;13.250;2023-07-16T11:42:34;1.77;;;1.47;;
7289;SDS011;63176;52.678;13.250;2023-07-16T11:45:01;2.43;;;1.67;;
7289;SDS011;63176;52.678;13.250;2023-07-16T11:47:27;1.67;;;1.20;;
7289;SDS011;63176;52.678;13.250;2023-07-16T11:49:54;2.40;;;1.23;;
7289;SDS011;63176;52.678;13.250;2023-07-16T11:52:20;2.27;;;1.93;;
7289;SDS011;63176;52.678;13.250;2023-07-16T11:54:48;3.33;;;1.57;;
7289;SDS011;63176;52.678;13.250;2023-07-16T11:57:14;4.33;;;1.53;;
7289;SDS011;63176;52.678;13.250;2023-07-16T11:59:40;2.57;;;1.43;;
7289;SDS011;63176;52.678;13.250;2023-07-16T12:02:05;3.17;;;1.97;;
7289;SDS011;63176;52.678;13.250;2023-07-16T12:04:31;3.17;;;1.40;;
7289;SDS011;63176;52.678;13.250;2023-07-16T12:06:57;2.20;;;1.40;;
7289;SDS011;63176;52.678;13.250;2023-07-16T12:09:23;2.50;;;1.80;;
7289;SDS011;63176;52.678;13.250;2023-07-16T12:11:49;3.83;;;1.60;;
7289;SDS011;63176;52.678;13.250;2023-07-16T12:14:14;1.70;;;1.30;;
7289;SDS011;63176;52.678;13.250;2023-07-16T12:16:40;1.80;;;1.70;;
7289;SDS011;63176;52.678;13.250;2023-07-16T12:19:07;1.23;;;1.13;;
7289;SDS011;63176;52.678;13.250;2023-07-16T12:21:33;4.20;;;1.40;;
7289;SDS011;63176;52.678;13.250;2023-07-16T12:23:59;1.30;;;1.10;;
7289;SDS011;63176;52.678;13.250;2023-07-16T12:26:25;1.30;;;1.13;;
7289;SDS011;63176;52.678;13.250;2023-07-16T12:28:50;3.40;;;1.27;;
7289;SDS011;63176;52.678;13.250;2023-07-16T12:31:16;4.00;;;1.60;;
7289;SDS011;63176;52.678;13.250;2023-07-16T12:33:42;1.53;;;1.43;;
7289;SDS011;63176;52.678;13.250;2023-07-16T12:36:08;3.53;;;1.50;;
7289;SDS011;63176;52.678;13.250;2023-07-16T12:38:34;1.63;;;1.17;;
7289;SDS011;63176;52.678;13.250;2023-07-16T12:41:00;3.37;;;1.70;;
7289;SDS011;63176;52.678;13.250;2023-07-16T12:43:26;1.93;;;1.00;;
7289;SDS011;63176;52.678;13.250;2023-07-16T12:45:51;5.80;;;1.50;;
7289;SDS011;63176;52.678;13.250;2023-07-16T12:48:17;1.30;;;1.20;;
7289;SDS011;63176;52.678;13.250;2023-07-16T12:50:43;1.27;;;1.13;;
7289;SDS011;63176;52.678;13.250;2023-07-16T12:53:08;2.10;;;1.47;;
7289;SDS011;63176;52.678;13.250;2023-07-16T12:55:34;1.30;;;1.20;;
7289;SDS011;63176;52.678;13.250;2023-07-16T12:58:00;4.80;;;1.30;;
7289;SDS011;63176;52.678;13.250;2023-07-16T13:00:25;3.07;;;1.50;;
7289;SDS011;63176;52.678;13.250;2023-07-16T13:02:51;1.23;;;1.03;;
7289;SDS011;63176;52.678;13.250;2023-07-16T13:05:17;1.20;;;0.90;;
7289;SDS011;63176;52.678;13.250;2023-07-16T13:07:42;3.03;;;1.30;;
7289;SDS011;63176;52.678;13.250;2023-07-16T13:10:08;2.70;;;1.57;;
7289;SDS011;63176;52.678;13.250;2023-07-16T13:12:34;2.27;;;1.70;;
7289;SDS011;63176;52.678;13.250;2023-07-16T13:15:00;3.00;;;1.40;;
7289;SDS011;63176;52.678;13.250;2023-07-16T13:17:26;1.40;;;1.07;;
7289;SDS011;63176;52.678;13.250;2023-07-16T13:19:51;4.77;;;1.50;;
7289;SDS011;63176;52.678;13.250;2023-07-16T13:22:17;1.87;;;1.40;;
7289;SDS011;63176;52.678;13.250;2023-07-16T13:24:43;1.40;;;1.10;;
7289;SDS011;63176;52.678;13.250;2023-07-16T13:27:29;1.10;;;0.97;;
7289;SDS011;63176;52.678;13.250;2023-07-16T13:29:54;1.70;;;1.03;;
7289;SDS011;63176;52.678;13.250;2023-07-16T13:32:20;1.23;;;0.90;;
7289;SDS011;63176;52.678;13.250;2023-07-16T13:34:45;4.27;;;0.83;;
7289;SDS011;63176;52.678;13.250;2023-07-16T13:37:11;2.50;;;1.20;;
7289;SDS011;63176;52.678;13.250;2023-07-16T13:39:37;2.47;;;1.13;;
7289;SDS011;63176;52.678;13.250;2023-07-16T13:42:02;1.13;;;0.83;;
7289;SDS011;63176;52.678;13.250;2023-07-16T13:44:28;1.07;;;0.97;;
7289;SDS011;63176;52.678;13.250;2023-07-16T13:46:54;2.50;;;1.10;;
7289;SDS011;63176;52.678;13.250;2023-07-16T13:49:20;2.10;;;0.93;;
7289;SDS011;63176;52.678;13.250;2023-07-16T13:51:45;3.67;;;1.00;;
7289;SDS011;63176;52.678;13.250;2023-07-16T13:54:11;1.10;;;1.00;;
7289;SDS011;63176;52.678;13.250;2023-07-16T13:56:37;1.67;;;1.20;;
7289;SDS011;63176;52.678;13.250;2023-07-16T13:59:03;1.10;;;0.90;;
7289;SDS011;63176;52.678;13.250;2023-07-16T14:01:29;1.80;;;1.20;;
7289;SDS011;63176;52.678;13.250;2023-07-16T14:03:54;2.00;;;1.00;;
7289;SDS011;63176;52.678;13.250;2023-07-16T14:06:20;2.63;;;1.43;;
7289;SDS011;63176;52.678;13.250;2023-07-16T14:08:46;1.33;;;1.00;;
7289;SDS011;63176;52.678;13.250;2023-07-16T14:11:12;0.93;;;0.60;;
7289;SDS011;63176;52.678;13.250;2023-07-16T14:13:38;1.63;;;0.70;;
7289;SDS011;63176;52.678;13.250;2023-07-16T14:16:04;1.30;;;0.83;;
7289;SDS011;63176;52.678;13.250;2023-07-16T14:18:30;2.97;;;1.23;;
7289;SDS011;63176;52.678;13.250;2023-07-16T14:20:56;1.50;;;0.80;;
7289;SDS011;63176;52.678;13.250;2023-07-16T14:23:21;3.13;;;0.93;;
7289;SDS011;63176;52.678;13.250;2023-07-16T14:25:47;2.10;;;1.00;;
7289;SDS011;63176;52.678;13.250;2023-07-16T14:28:13;1.00;;;0.80;;
7289;SDS011;63176;52.678;13.250;2023-07-16T14:30:38;7.73;;;1.07;;
7289;SDS011;63176;52.678;13.250;2023-07-16T14:33:04;2.40;;;1.10;;
7289;SDS011;63176;52.678;13.250;2023-07-16T14:35:30;3.60;;;1.10;;
7289;SDS011;63176;52.678;13.250;2023-07-16T14:37:58;2.80;;;1.07;;
7289;SDS011;63176;52.678;13.250;2023-07-16T14:40:24;1.23;;;1.07;;
7289;SDS011;63176;52.678;13.250;2023-07-16T14:42:51;1.40;;;1.17;;
7289;SDS011;63176;52.678;13.250;2023-07-16T14:45:16;1.37;;;1.27;;
7289;SDS011;63176;52.678;13.250;2023-07-16T14:47:43;1.17;;;0.80;;
7289;SDS011;63176;52.678;13.250;2023-07-16T14:50:08;2.07;;;0.77;;
7289;SDS011;63176;52.678;13.250;2023-07-16T14:52:34;1.27;;;1.00;;
7289;SDS011;63176;52.678;13.250;2023-07-16T14:55:01;3.80;;;1.10;;
7289;SDS011;63176;52.678;13.250;2023-07-16T14:57:29;2.93;;;0.77;;
7289;SDS011;63176;52.678;13.250;2023-07-16T14:59:55;1.13;;;0.80;;
7289;SDS011;63176;52.678;13.250;2023-07-16T15:02:21;2.10;;;0.93;;
7289;SDS011;63176;52.678;13.250;2023-07-16T15:04:47;3.67;;;1.00;;
7289;SDS011;63176;52.678;13.250;2023-07-16T15:07:12;1.77;;;1.13;;
7289;SDS011;63176;52.678;13.250;2023-07-16T15:09:38;5.30;;;1.07;;
7289;SDS011;63176;52.678;13.250;2023-07-16T15:12:05;2.37;;;1.00;;
7289;SDS011;63176;52.678;13.250;2023-07-16T15:14:31;2.00;;;0.97;;
7289;SDS011;63176;52.678;13.250;2023-07-16T15:16:58;2.90;;;1.10;;